Track Меркулова Анна

Time Latitude Longitude Accuracy (66% radius in meters) Altitude (meters) Speed (km/hour) Bearing (degrees) Battery (%) GPS flag
08:56:50 53.021685 36.163468 3.9000000953674 193.6 0 112.4700012207 71 1 delete
08:56:38 53.021685 36.163468 3.9000000953674 193.6 0 112.4700012207 76 1 delete
08:56:26 53.021678 36.163532 4 194.1 0 112.4700012207 76 1 delete
08:56:14 53.021707 36.163673 4.4000000953674 186.2 0 112.4700012207 76 1 delete
08:56:06 53.021713 36.163700 4.1999998092651 184 0 112.4700012207 76 1 delete
08:56:01 53.021750 36.163858 4.1999998092651 179.9 0 112.4700012207 76 1 delete
08:55:50 53.021747 36.163905 4 178.8 0 277.42001342773 76 1 delete
08:55:49 53.021747 36.163933 4.0999999046326 177.5 0 277.42001342773 76 1 delete
08:55:39 53.021803 36.164058 3.7999999523163 178.2 0 105.05999755859 76 1 delete
08:55:31 53.021807 36.164093 3.7999999523163 177.6 0 131.7799987793 76 1 delete
08:55:28 53.021817 36.164203 3.9000000953674 174.5 0 131.7799987793 76 1 delete
08:55:27 53.021823 36.164250 3.9000000953674 173.1 0 131.7799987793 76 1 delete
08:55:19 53.021853 36.164448 3.9000000953674 168.9 0.63156414031982 265.57998657227 76 1 delete
08:55:16 53.021867 36.164557 4 170.7 0 263.26000976562 76 1 delete
08:55:15 53.021870 36.164608 4 170.1 0 263.26000976562 76 1 delete
08:55:10 53.021880 36.164808 4 171.2 1.2873202562332 279.98001098633 76 1 delete
08:55:02 53.021870 36.164980 3.9000000953674 174.9 0 331.20001220703 76 1 delete
08:54:57 53.021880 36.165077 3.9000000953674 174.5 0 96.01000213623 76 1 delete
08:54:50 53.021875 36.165147 3.7999999523163 178.1 0 96.01000213623 76 1 delete
08:54:46 53.021888 36.165258 3.9000000953674 182.3 0 80.089996337891 76 1 delete
08:54:33 53.021895 36.165265 3.7999999523163 182.4 0 80.089996337891 76 1 delete
08:54:20 53.021918 36.165355 3.7000000476837 177.4 0.92598527669907 75.860000610352 76 1 delete
08:54:19 53.021938 36.165342 3.7000000476837 176 0.89510196447372 57.470001220703 76 1 delete
08:54:12 53.022037 36.165347 3.9000000953674 177.6 0 39.689998626709 76 1 delete
08:54:10 53.022062 36.165377 4 175.9 0 39.689998626709 76 1 delete
08:54:07 53.022110 36.165452 4.0999999046326 175 0 39.689998626709 76 1 delete
08:53:58 53.022160 36.165533 3.9000000953674 180.5 0 39.689998626709 76 1 delete
08:53:55 53.022183 36.165565 3.9000000953674 183.5 0 39.689998626709 76 1 delete
08:53:46 53.022250 36.165642 3.7000000476837 188 0 39.689998626709 76 1 delete
08:53:43 53.022258 36.165655 3.5999999046326 188.4 0 39.689998626709 76 1 delete
08:53:35 53.022333 36.165672 3.5999999046326 187.9 0 120.09999847412 76 1 delete
08:53:29 53.022388 36.165700 3.7000000476837 191.5 0.87451303005219 120.09999847412 76 1 delete
08:53:22 53.022465 36.165745 3.7000000476837 188.6 0 150.11999511719 76 1 delete
08:53:17 53.022485 36.165732 3.5999999046326 188.1 0 150.11999511719 76 1 delete
08:53:12 53.022558 36.165740 3.5999999046326 190.5 0 202.69999694824 76 1 delete
08:53:06 53.022598 36.165788 3.5 192.1 0 202.69999694824 76 1 delete
08:53:02 53.022637 36.165900 3.5999999046326 194.1 0 202.69999694824 76 1 delete
08:53:00 53.022655 36.165928 3.5 194.3 0 202.69999694824 76 1 delete
08:52:53 53.022735 36.165998 3.5 197.9 0 189.10000610352 76 1 delete
08:52:52 53.022747 36.166005 3.5 198.3 0.98003113269806 189.10000610352 76 1 delete
08:52:47 53.022817 36.166070 3.5999999046326 199.8 0.97797220945358 196.52000427246 76 1 delete
08:52:40 53.022897 36.166167 3.7000000476837 203.9 0 209.86999511719 76 1 delete
08:52:32 53.022997 36.166188 3.9000000953674 201.9 0 209.86999511719 76 1 delete
08:52:28 53.023057 36.166133 3.9000000953674 201.8 0 209.86999511719 76 1 delete
08:52:27 53.023078 36.166115 3.9000000953674 200.7 0 209.86999511719 76 1 delete
08:52:21 53.023167 36.166012 3.9000000953674 195.3 0 209.86999511719 76 1 delete
08:52:14 53.023252 36.165882 3.9000000953674 182.9 0 209.86999511719 76 1 delete
08:52:11 53.023295 36.165860 3.9000000953674 184.1 0 209.86999511719 76 1 delete
08:52:03 53.023383 36.165773 3.7999999523163 192.8 0 209.86999511719 76 1 delete
08:51:56 53.023438 36.165710 3.7000000476837 192.5 0 209.86999511719 76 1 delete